createdAt,value
2018-11-27T00:00:57.310Z,3.13
2018-11-27T00:03:31.701Z,4.90
2018-11-27T00:06:01.034Z,3.67
2018-11-27T00:08:30.327Z,3.40
2018-11-27T00:10:59.744Z,6.13
2018-11-27T00:13:29.055Z,6.47
2018-11-27T00:15:59.287Z,3.20
2018-11-27T00:18:28.699Z,5.30
2018-11-27T00:20:58.214Z,3.80
2018-11-27T00:23:28.099Z,12.60
2018-11-27T00:25:58.421Z,10.67
2018-11-27T00:28:27.859Z,6.20
2018-11-27T00:30:57.246Z,8.07
2018-11-27T00:33:26.666Z,8.15
2018-11-27T00:35:56.138Z,4.13
2018-11-27T00:38:25.422Z,3.50
2018-11-27T00:40:54.711Z,6.63
2018-11-27T00:43:23.999Z,6.70
2018-11-27T00:45:53.343Z,4.67
2018-11-27T00:48:22.620Z,7.67
2018-11-27T00:50:52.024Z,6.30
2018-11-27T00:53:21.263Z,13.83
2018-11-27T00:55:50.552Z,4.10
2018-11-27T00:58:19.883Z,7.50
2018-11-27T01:00:49.307Z,8.90
2018-11-27T01:03:18.558Z,4.40
2018-11-27T01:05:47.903Z,13.13
2018-11-27T01:08:17.226Z,12.77
2018-11-27T01:10:46.574Z,9.20
2018-11-27T01:13:15.987Z,7.93
2018-11-27T01:15:45.311Z,8.50
2018-11-27T01:18:14.649Z,13.33
2018-11-27T01:20:43.987Z,8.17
2018-11-27T01:23:13.359Z,10.37
2018-11-27T01:25:42.698Z,8.60
2018-11-27T01:28:12.003Z,10.20
2018-11-27T01:30:41.399Z,11.33
2018-11-27T01:33:10.714Z,13.67
2018-11-27T01:35:40.027Z,11.13
2018-11-27T01:38:09.332Z,8.07
2018-11-27T01:40:38.669Z,17.80
2018-11-27T01:43:08.000Z,9.17
2018-11-27T01:45:37.374Z,9.03
2018-11-27T01:48:06.880Z,10.95
2018-11-27T01:50:36.140Z,11.40
2018-11-27T01:53:05.916Z,7.50
2018-11-27T01:55:35.200Z,12.83
2018-11-27T01:58:04.542Z,9.40
2018-11-27T02:00:33.899Z,8.83
2018-11-27T02:03:03.239Z,12.37
2018-11-27T02:05:32.550Z,11.27
2018-11-27T02:08:01.904Z,7.57
2018-11-27T02:10:31.206Z,12.10
2018-11-27T02:13:01.409Z,9.37
2018-11-27T02:15:30.477Z,11.17
2018-11-27T02:17:59.775Z,9.03
2018-11-27T02:20:29.059Z,9.07
2018-11-27T02:22:58.445Z,9.87
2018-11-27T02:25:29.067Z,11.00
2018-11-27T02:27:58.439Z,7.37
2018-11-27T02:30:28.674Z,9.37
2018-11-27T02:32:57.976Z,12.07
2018-11-27T02:35:27.676Z,8.10
2018-11-27T02:38:00.015Z,10.33
2018-11-27T02:40:29.324Z,10.93
2018-11-27T02:42:58.632Z,8.13
2018-11-27T02:45:27.927Z,12.83
2018-11-27T02:47:57.304Z,8.63
2018-11-27T02:50:27.119Z,10.23
2018-11-27T02:52:56.560Z,6.53
2018-11-27T02:55:27.103Z,10.80
2018-11-27T02:57:56.499Z,13.27
2018-11-27T03:00:28.112Z,9.27
2018-11-27T03:02:57.554Z,8.07
2018-11-27T03:05:28.178Z,7.80
2018-11-27T03:07:57.533Z,12.47
2018-11-27T03:10:26.883Z,9.53
2018-11-27T03:12:56.228Z,12.23
2018-11-27T03:15:25.643Z,6.57
2018-11-27T03:17:54.944Z,8.83
2018-11-27T03:20:24.316Z,9.07
2018-11-27T03:22:53.667Z,13.03
2018-11-27T03:25:23.766Z,8.33
2018-11-27T03:27:54.207Z,7.33
2018-11-27T03:30:26.147Z,6.27
2018-11-27T03:32:55.473Z,6.00
2018-11-27T03:35:25.775Z,7.10
2018-11-27T03:37:55.273Z,15.97
2018-11-27T03:40:27.026Z,3.13
2018-11-27T03:42:56.469Z,9.30
2018-11-27T03:45:26.275Z,6.60
2018-11-27T03:47:55.672Z,8.70
2018-11-27T03:50:28.204Z,16.73
2018-11-27T03:52:57.521Z,10.70
2018-11-27T03:55:27.944Z,6.80
2018-11-27T03:57:57.292Z,8.23
2018-11-27T04:00:29.904Z,8.00
2018-11-27T04:04:14.202Z,6.03
2018-11-27T04:06:44.097Z,6.73
2018-11-27T04:09:13.465Z,6.60
2018-11-27T04:11:43.000Z,7.20
2018-11-27T04:14:12.857Z,8.53
2018-11-27T04:16:42.216Z,6.73
2018-11-27T04:19:11.510Z,6.43
2018-11-27T04:21:40.844Z,12.57
2018-11-27T04:24:10.263Z,4.50
2018-11-27T04:26:39.567Z,8.67
2018-11-27T04:29:08.905Z,4.40
2018-11-27T04:31:38.329Z,4.87
2018-11-27T04:34:07.650Z,3.87
2018-11-27T04:36:37.088Z,7.53
2018-11-27T04:39:09.406Z,7.03
2018-11-27T04:41:38.809Z,4.63
2018-11-27T04:44:11.075Z,6.80
2018-11-27T04:46:40.451Z,3.57
2018-11-27T04:49:10.576Z,7.43
2018-11-27T04:51:39.937Z,6.70
2018-11-27T04:54:09.284Z,3.10
2018-11-27T04:56:38.635Z,6.30
2018-11-27T04:59:07.960Z,12.63
2018-11-27T05:01:37.327Z,7.30
2018-11-27T05:04:06.695Z,6.50
2018-11-27T05:06:36.191Z,13.30
2018-11-27T05:09:08.825Z,9.10
2018-11-27T05:11:39.502Z,8.40
2018-11-27T05:14:08.900Z,15.27
2018-11-27T05:16:38.289Z,8.53
2018-11-27T05:19:07.643Z,15.00
2018-11-27T05:21:36.995Z,17.20
2018-11-27T05:24:07.124Z,16.77
2018-11-27T05:26:36.689Z,26.33
2018-11-27T05:29:06.693Z,18.80
2018-11-27T05:31:36.076Z,14.03
2018-11-27T05:34:05.848Z,14.17
2018-11-27T05:36:35.412Z,22.73
2018-11-27T05:39:07.151Z,22.30
2018-11-27T05:41:36.665Z,16.70
2018-11-27T05:44:07.627Z,18.50
2018-11-27T05:46:37.000Z,19.30
2018-11-27T05:49:06.527Z,14.47
2018-11-27T05:51:36.030Z,19.53
2018-11-27T05:54:05.509Z,15.40
2018-11-27T05:56:34.955Z,22.70
2018-11-27T05:59:04.469Z,24.07
2018-11-27T06:01:33.985Z,16.60
2018-11-27T06:04:03.441Z,19.10
2018-11-27T06:06:32.894Z,23.47
2018-11-27T06:09:02.391Z,22.10
2018-11-27T06:11:31.735Z,25.03
2018-11-27T06:14:01.146Z,19.60
2018-11-27T06:16:30.479Z,24.17
2018-11-27T06:18:59.843Z,11.87
2018-11-27T06:21:29.305Z,17.80
2018-11-27T06:23:58.655Z,21.10
2018-11-27T06:26:28.056Z,16.37
2018-11-27T06:28:57.400Z,25.17
2018-11-27T06:31:26.720Z,19.13
2018-11-27T06:33:56.063Z,22.20
2018-11-27T06:36:25.379Z,24.87
2018-11-27T06:38:54.925Z,18.53
2018-11-27T06:41:24.243Z,24.13
2018-11-27T06:43:53.581Z,17.10
2018-11-27T06:46:23.110Z,14.63
2018-11-27T06:48:53.876Z,18.63
2018-11-27T06:51:23.307Z,14.40
2018-11-27T06:53:52.645Z,12.87
2018-11-27T06:56:22.053Z,11.20
2018-11-27T06:58:51.561Z,14.43
2018-11-27T07:01:20.905Z,15.60
2018-11-27T07:03:50.308Z,13.20
2018-11-27T07:06:19.607Z,12.57
2018-11-27T07:08:49.004Z,12.53
2018-11-27T07:11:18.355Z,12.07
2018-11-27T07:13:47.688Z,19.07
2018-11-27T07:16:17.125Z,15.40
2018-11-27T07:18:46.597Z,8.50
2018-11-27T07:21:16.029Z,23.33
2018-11-27T07:23:45.416Z,20.03
2018-11-27T07:26:14.804Z,19.27
2018-11-27T07:28:44.411Z,10.93
2018-11-27T07:31:13.760Z,13.30
2018-11-27T07:33:43.218Z,18.23
2018-11-27T07:36:12.595Z,27.13
2018-11-27T07:38:41.952Z,13.77
2018-11-27T07:41:11.325Z,20.03
2018-11-27T07:43:40.720Z,16.05
2018-11-27T07:46:12.300Z,13.43
2018-11-27T07:48:41.608Z,18.77
2018-11-27T07:51:26.885Z,20.80
2018-11-27T07:53:56.199Z,10.80
2018-11-27T07:56:25.472Z,14.93
2018-11-27T07:58:54.781Z,17.53
2018-11-27T08:01:29.865Z,21.87
2018-11-27T08:03:59.170Z,36.97
2018-11-27T08:06:28.611Z,17.70
2018-11-27T08:09:09.181Z,30.70
2018-11-27T08:11:38.492Z,22.60
2018-11-27T08:14:08.441Z,17.23
2018-11-27T08:16:37.846Z,13.73
2018-11-27T08:19:07.500Z,22.80
2018-11-27T08:21:36.828Z,19.00
2018-11-27T08:24:06.632Z,15.67
2018-11-27T08:26:36.247Z,19.37
2018-11-27T08:29:05.902Z,21.30
2018-11-27T08:31:35.219Z,24.33
2018-11-27T08:34:04.718Z,37.90
2018-11-27T08:36:33.972Z,41.23
2018-11-27T08:39:03.479Z,36.23
2018-11-27T08:41:40.522Z,26.90
2018-11-27T08:44:02.125Z,28.20
2018-11-27T08:46:31.605Z,17.03
2018-11-27T08:49:00.908Z,21.27
2018-11-27T08:51:30.199Z,25.33
2018-11-27T08:53:59.447Z,22.97
2018-11-27T08:56:28.702Z,16.17
2018-11-27T08:58:58.096Z,19.37
2018-11-27T09:01:27.403Z,21.37
2018-11-27T09:03:56.658Z,22.33
2018-11-27T09:06:26.048Z,9.87
2018-11-27T09:08:56.032Z,17.40
2018-11-27T09:11:25.434Z,11.17
2018-11-27T09:13:54.890Z,14.50
2018-11-27T09:16:24.314Z,8.90
2018-11-27T09:18:53.620Z,12.20
2018-11-27T09:21:22.942Z,9.53
2018-11-27T09:23:52.246Z,13.60
2018-11-27T09:26:21.596Z,9.07
2018-11-27T09:28:58.382Z,13.00
2018-11-27T09:31:43.670Z,8.60
2018-11-27T09:34:12.949Z,10.57
2018-11-27T09:36:42.239Z,9.53
2018-11-27T09:39:11.532Z,16.03
2018-11-27T09:41:40.835Z,14.53
2018-11-27T09:44:10.129Z,16.80
2018-11-27T09:46:39.446Z,15.00
2018-11-27T09:49:15.275Z,13.43
2018-11-27T09:51:44.554Z,10.20
2018-11-27T09:54:13.835Z,12.10
2018-11-27T09:56:43.196Z,14.93
2018-11-27T09:59:12.482Z,11.23
2018-11-27T10:01:41.808Z,9.73
2018-11-27T10:04:11.114Z,11.63
2018-11-27T10:06:40.512Z,15.37
2018-11-27T10:09:10.221Z,11.13
2018-11-27T10:11:39.513Z,10.37
2018-11-27T10:14:08.849Z,11.20
2018-11-27T10:16:38.267Z,11.07
2018-11-27T10:19:07.623Z,24.70
2018-11-27T10:21:36.946Z,8.67
2018-11-27T10:24:06.484Z,10.18
2018-11-27T10:26:35.909Z,8.60
2018-11-27T10:29:05.502Z,14.40
2018-11-27T10:31:34.913Z,9.47
2018-11-27T10:34:04.247Z,15.90
2018-11-27T10:36:33.558Z,13.40
2018-11-27T10:39:02.854Z,12.03
2018-11-27T10:41:32.117Z,12.67
2018-11-27T10:44:01.546Z,13.23
2018-11-27T10:46:31.421Z,14.93
2018-11-27T10:49:00.991Z,15.60
2018-11-27T10:51:31.324Z,9.70
2018-11-27T10:54:00.732Z,9.47
2018-11-27T10:56:30.179Z,14.70
2018-11-27T10:58:59.856Z,9.83
2018-11-27T11:01:34.132Z,11.70
2018-11-27T11:04:03.449Z,14.20
2018-11-27T11:06:33.648Z,10.47
2018-11-27T11:09:03.701Z,4.73
2018-11-27T11:11:33.995Z,12.93
2018-11-27T11:14:03.340Z,10.97
2018-11-27T11:16:32.730Z,14.60
2018-11-27T11:19:02.131Z,10.93
2018-11-27T11:21:32.436Z,10.73
2018-11-27T11:24:02.743Z,9.80
2018-11-27T11:26:32.055Z,8.33
2018-11-27T11:29:01.450Z,12.17
2018-11-27T11:31:30.716Z,11.47
2018-11-27T11:34:00.039Z,10.93
2018-11-27T11:36:29.371Z,8.20
2018-11-27T11:38:58.739Z,13.72
2018-11-27T11:41:31.285Z,13.20
2018-11-27T11:43:57.497Z,15.23
2018-11-27T11:46:27.107Z,10.60
2018-11-27T11:49:01.765Z,18.43
2018-11-27T11:51:25.825Z,15.23
2018-11-27T11:53:55.132Z,16.10
2018-11-27T11:56:24.407Z,8.93
2018-11-27T11:58:53.684Z,8.43
2018-11-27T12:01:22.983Z,14.70
2018-11-27T12:03:53.220Z,12.93
2018-11-27T12:06:22.546Z,9.83
2018-11-27T12:08:51.851Z,11.73
2018-11-27T12:11:21.190Z,5.90
2018-11-27T12:13:50.562Z,8.07
2018-11-27T12:16:19.879Z,6.57
2018-11-27T12:18:49.187Z,8.53
2018-11-27T12:21:18.499Z,11.70
2018-11-27T12:23:47.872Z,9.60
2018-11-27T12:26:17.241Z,10.93
2018-11-27T12:28:46.537Z,5.97
2018-11-27T12:31:15.836Z,7.30
2018-11-27T12:33:45.182Z,6.90
2018-11-27T12:36:21.144Z,6.50
2018-11-27T12:38:50.487Z,12.87
2018-11-27T12:41:19.810Z,11.17
2018-11-27T12:43:49.135Z,13.20
2018-11-27T12:46:18.539Z,7.97
2018-11-27T12:48:47.839Z,10.27
2018-11-27T12:51:17.519Z,14.20
2018-11-27T12:53:46.524Z,4.83
2018-11-27T12:56:15.864Z,6.60
2018-11-27T12:58:45.123Z,9.80
2018-11-27T13:01:14.370Z,12.47
2018-11-27T13:03:43.675Z,18.30
2018-11-27T13:06:12.964Z,9.23
2018-11-27T13:08:42.218Z,10.53
2018-11-27T13:11:11.707Z,10.90
2018-11-27T13:13:41.796Z,6.00
2018-11-27T13:16:10.381Z,6.17
2018-11-27T13:18:39.599Z,11.17
2018-11-27T13:21:09.290Z,11.07
2018-11-27T13:23:38.555Z,8.33
2018-11-27T13:26:07.994Z,11.00
2018-11-27T13:28:37.429Z,10.30
2018-11-27T13:31:10.381Z,12.53
2018-11-27T13:34:02.048Z,6.87
2018-11-27T13:36:31.382Z,12.70
2018-11-27T13:39:11.561Z,8.10
2018-11-27T13:41:41.019Z,12.87
2018-11-27T13:44:10.387Z,10.17
2018-11-27T13:46:40.364Z,11.43
2018-11-27T13:49:09.718Z,8.53
2018-11-27T13:51:39.155Z,13.77
2018-11-27T13:54:09.082Z,10.93
2018-11-27T13:56:38.629Z,9.83
2018-11-27T13:59:08.002Z,7.03
2018-11-27T14:01:37.805Z,10.40
2018-11-27T14:04:09.342Z,11.60
2018-11-27T14:06:38.862Z,4.37
2018-11-27T14:09:10.665Z,10.63
2018-11-27T14:11:40.693Z,14.33
2018-11-27T14:14:10.180Z,7.90
2018-11-27T14:16:39.890Z,5.37
2018-11-27T14:19:09.311Z,9.37
2018-11-27T14:21:38.647Z,18.33
2018-11-27T14:24:07.942Z,9.43
2018-11-27T14:26:37.251Z,12.27
2018-11-27T14:29:07.023Z,14.90
2018-11-27T14:31:36.423Z,13.00
2018-11-27T14:34:06.089Z,12.67
2018-11-27T14:36:35.343Z,16.70
2018-11-27T14:39:07.439Z,13.90
2018-11-27T14:41:37.600Z,16.10
2018-11-27T14:44:07.283Z,17.40
2018-11-27T14:46:36.551Z,15.27
2018-11-27T14:49:06.051Z,11.37
2018-11-27T14:51:35.334Z,20.43
2018-11-27T14:54:05.085Z,13.87
2018-11-27T14:56:34.395Z,18.73
2018-11-27T14:59:03.660Z,19.00
2018-11-27T15:01:32.947Z,15.33
2018-11-27T15:04:02.244Z,15.00
2018-11-27T15:06:31.526Z,10.77
2018-11-27T15:09:00.776Z,17.87
2018-11-27T15:11:30.042Z,12.37
2018-11-27T15:13:59.327Z,16.03
2018-11-27T15:16:28.627Z,12.83
2018-11-27T15:18:57.898Z,13.37
2018-11-27T15:21:27.160Z,12.83
2018-11-27T15:23:56.458Z,18.37
2018-11-27T15:26:25.727Z,19.07
2018-11-27T15:28:55.055Z,20.30
2018-11-27T15:31:24.335Z,19.13
2018-11-27T15:33:53.879Z,21.77
2018-11-27T15:36:23.131Z,9.83
2018-11-27T15:38:52.395Z,16.33
2018-11-27T15:41:21.798Z,13.63
2018-11-27T15:43:51.059Z,19.67
2018-11-27T15:46:20.343Z,11.33
2018-11-27T15:48:49.613Z,25.63
2018-11-27T15:51:18.863Z,18.30
2018-11-27T15:53:48.157Z,15.10
2018-11-27T15:56:17.448Z,17.23
2018-11-27T15:58:46.673Z,20.00
2018-11-27T16:01:15.933Z,15.63
2018-11-27T16:03:45.211Z,21.83
2018-11-27T16:06:14.534Z,15.48
2018-11-27T16:08:43.812Z,15.03
2018-11-27T16:11:13.318Z,14.90
2018-11-27T16:13:42.583Z,15.30
2018-11-27T16:16:11.924Z,18.23
2018-11-27T16:18:58.286Z,20.87
2018-11-27T16:21:27.497Z,14.23
2018-11-27T16:23:56.683Z,15.20
2018-11-27T16:26:25.979Z,12.80
2018-11-27T16:28:55.212Z,21.63
2018-11-27T16:31:25.030Z,21.77
2018-11-27T16:33:54.315Z,15.57
2018-11-27T16:36:23.624Z,30.73
2018-11-27T16:38:52.886Z,14.23
2018-11-27T16:41:22.170Z,16.27
2018-11-27T16:43:52.439Z,14.97
2018-11-27T16:46:22.488Z,25.63
2018-11-27T16:48:51.794Z,16.10
2018-11-27T16:51:21.113Z,12.57
2018-11-27T16:53:50.391Z,16.77
2018-11-27T16:56:19.691Z,19.73
2018-11-27T16:58:48.959Z,21.80
2018-11-27T17:01:18.302Z,20.20
2018-11-27T17:03:47.557Z,18.57
2018-11-27T17:06:16.915Z,18.13
2018-11-27T17:08:46.187Z,17.47
2018-11-27T17:11:15.480Z,23.97
2018-11-27T17:13:44.803Z,17.20
2018-11-27T17:16:14.080Z,23.17
2018-11-27T17:18:43.348Z,18.70
2018-11-27T17:21:12.659Z,22.03
2018-11-27T17:23:41.912Z,23.95
2018-11-27T17:26:11.266Z,15.77
2018-11-27T17:28:40.626Z,14.60
2018-11-27T17:31:15.756Z,25.83
2018-11-27T17:36:42.028Z,27.93
2018-11-27T17:39:12.204Z,35.63
2018-11-27T17:41:41.683Z,23.07
2018-11-27T17:44:13.896Z,15.90
2018-11-27T17:46:43.225Z,30.57
2018-11-27T17:49:12.587Z,14.97
2018-11-27T17:51:41.877Z,21.83
2018-11-27T17:54:11.200Z,22.23
2018-11-27T17:56:40.512Z,20.13
2018-11-27T17:59:09.813Z,17.57
2018-11-27T18:01:39.135Z,18.77
2018-11-27T18:04:08.404Z,18.10
2018-11-27T18:06:37.663Z,15.30
2018-11-27T18:09:09.286Z,18.37
2018-11-27T18:11:38.637Z,14.40
2018-11-27T18:14:07.906Z,20.10
2018-11-27T18:16:37.218Z,15.47
2018-11-27T18:19:07.058Z,16.20
2018-11-27T18:21:36.349Z,14.87
2018-11-27T18:24:05.919Z,23.07
2018-11-27T18:26:35.166Z,14.70
2018-11-27T18:29:04.475Z,11.37
2018-11-27T18:31:33.785Z,15.40
2018-11-27T18:34:03.050Z,14.10
2018-11-27T18:36:32.397Z,14.17
2018-11-27T18:39:01.715Z,13.30
2018-11-27T18:41:31.740Z,15.97
2018-11-27T18:44:01.039Z,17.83
2018-11-27T18:46:30.314Z,16.47
2018-11-27T18:48:59.583Z,24.27
2018-11-27T18:51:28.945Z,18.00
2018-11-27T18:53:58.227Z,13.87
2018-11-27T18:56:27.482Z,7.50
2018-11-27T18:58:56.799Z,12.77
2018-11-27T19:01:26.071Z,15.53
2018-11-27T19:03:56.434Z,8.00
2018-11-27T19:06:26.068Z,29.53
2018-11-27T19:08:56.018Z,9.63
2018-11-27T19:11:25.354Z,17.43
2018-11-27T19:13:54.723Z,12.70
2018-11-27T19:16:25.002Z,15.63
2018-11-27T19:18:56.130Z,15.90
2018-11-27T19:21:25.698Z,18.97
2018-11-27T19:23:55.105Z,17.50
2018-11-27T19:26:24.811Z,27.37
2018-11-27T19:28:54.144Z,51.23
2018-11-27T19:31:23.376Z,36.67
2018-11-27T19:33:52.669Z,31.17
2018-11-27T19:36:22.008Z,21.23
2018-11-27T19:38:51.269Z,18.20
2018-11-27T19:41:20.599Z,12.60
2018-11-27T19:43:51.081Z,22.03
2018-11-27T19:46:20.450Z,15.93
2018-11-27T19:48:53.425Z,12.53
2018-11-27T19:51:19.194Z,19.40
2018-11-27T19:53:48.498Z,15.95
2018-11-27T19:59:00.191Z,19.73
2018-11-27T20:01:29.717Z,15.07
2018-11-27T20:03:59.114Z,11.87
2018-11-27T20:06:28.539Z,19.27
2018-11-27T20:08:58.044Z,15.80
2018-11-27T20:11:27.577Z,18.83
2018-11-27T20:13:57.483Z,15.00
2018-11-27T20:16:26.918Z,17.93
2018-11-27T20:19:03.018Z,14.47
2018-11-27T20:21:32.340Z,18.43
2018-11-27T20:24:01.648Z,20.57
2018-11-27T20:26:31.567Z,13.40
2018-11-27T20:29:01.829Z,9.50
2018-11-27T20:31:31.162Z,12.30
2018-11-27T20:34:00.467Z,11.67
2018-11-27T20:36:30.615Z,12.97
2018-11-27T20:39:00.717Z,13.97
2018-11-27T20:41:29.489Z,8.57
2018-11-27T20:43:58.916Z,9.90
2018-11-27T20:46:28.338Z,9.63
2018-11-27T20:49:13.294Z,16.10
2018-11-27T20:51:42.744Z,13.07
2018-11-27T20:54:15.278Z,13.33
2018-11-27T20:56:44.876Z,9.70
2018-11-27T20:59:14.272Z,10.67
2018-11-27T21:01:43.687Z,13.20
2018-11-27T21:04:12.975Z,19.33
2018-11-27T21:06:42.386Z,16.40
2018-11-27T21:09:13.560Z,11.10
2018-11-27T21:11:42.980Z,32.23
2018-11-27T21:14:12.277Z,25.63
2018-11-27T21:16:42.001Z,9.80
2018-11-27T21:19:11.416Z,15.87
2018-11-27T21:21:41.512Z,10.87
2018-11-27T21:24:11.915Z,13.10
2018-11-27T21:26:41.254Z,16.37
2018-11-27T21:29:10.663Z,14.50
2018-11-27T21:31:40.039Z,15.57
2018-11-27T21:34:09.402Z,10.87
2018-11-27T21:39:33.008Z,10.53
2018-11-27T21:42:02.506Z,11.30
2018-11-27T21:44:32.092Z,11.90
2018-11-27T21:47:01.547Z,12.83
2018-11-27T21:49:31.251Z,10.00
2018-11-27T21:52:00.879Z,8.87
2018-11-27T21:54:30.215Z,8.47
2018-11-27T21:57:01.789Z,11.43
2018-11-27T21:59:31.676Z,11.73
2018-11-27T22:02:01.742Z,16.13
2018-11-27T22:04:33.155Z,13.17
2018-11-27T22:07:02.797Z,11.70
2018-11-27T22:09:33.401Z,17.07
2018-11-27T22:12:03.811Z,15.55
2018-11-27T22:14:34.152Z,18.30
2018-11-27T22:17:03.765Z,7.83
2018-11-27T22:19:33.535Z,7.83
2018-11-27T22:22:03.316Z,6.33
2018-11-27T22:24:36.167Z,7.93
2018-11-27T22:27:10.892Z,11.47
2018-11-27T22:29:40.282Z,8.37
2018-11-27T22:32:09.636Z,9.17
2018-11-27T22:34:44.249Z,10.53
2018-11-27T23:04:13.083Z,10.20
2018-11-27T23:06:42.422Z,5.83
2018-11-27T23:09:11.779Z,9.60
2018-11-27T23:11:41.160Z,15.00
2018-11-27T23:14:10.468Z,6.73
2018-11-27T23:16:39.780Z,10.47
2018-11-27T23:19:09.095Z,8.93
2018-11-27T23:21:41.697Z,5.73
2018-11-27T23:24:11.143Z,13.57
2018-11-27T23:26:42.332Z,11.10
2018-11-27T23:29:34.823Z,14.60
2018-11-27T23:52:12.245Z,8.50
2018-11-27T23:54:45.856Z,15.50
